WIOO/PNK METAR and TAF weather

Enter ICAO airport designator
Station Type Date Time Source
WIOO METAR 2019/02/23 23:00 UTC NOAA

WIOO 232300Z 00000KT 6000 SCT012 23/22 Q1010 NOSIG


Station Type Date Time Source
WIOO Decoded METAR 2019/02/23 23:00 UTC NOAA

Pontianak / Supadio, Indonesia (WIOO) 00-09S 109-24E 3M
Feb 23, 2019 - 06:00 PM EST / 2019.02.23 2300 UTC
Wind: Calm:0
Visibility: 3 mile(s):0
Sky conditions: partly cloudy
Temperature: 73 F (23 C)
Dew Point: 71 F (22 C)
Relative Humidity: 94%
Pressure (altimeter): 29.83 in. Hg (1010 hPa)
ob: WIOO 232300Z 00000KT 6000 SCT012 23/22 Q1010 NOSIG
cycle: 23

Station Type Date Time Source
WIOO TAF 2014/03/26 00:51 UTC NOAA

TAF TAF WIOO 252300Z 2600/2624 10002KT 7000 SCT011
BECMG 2601/2603 08005KT 9999
TEMPO 2607/2610 15010KT 3000


Example: see airport list